• Join FlightAware (Why Join?)
  • Login
  • US Flag 
01:13PM EDT


 

Airport Tracker/Info


-or-


 

Live Flight TrackerFlight Track Log ✈ UPS2332 ✈ 24-Jul-2014 ✈ KSDF - KMIA

Flight Track Log - Related Links

Times and Time Zones

All times are in EDT time to prevent confusion due to time zone crossing. See the UPS2332 flight status page for this flight to view local times or setup timezone preferences in your user account.

Time Position Orientation Groundspeed Altitude Reporting Facility
EDT Latitude Longitude Course Direction KTS MPH feet Rate Location/Type
04:49PM 38.2232 -85.7698 331° Northwest 218 251 3,000  Level FlightAware ADS-B (KBRY)
04:50PM 38.2681 -85.8042 314° West 269 310 5,400 2,820 Climbing FlightAware ADS-B
04:50PM 38.2593 -85.7950 294° West 277 319 5,900 3,780 Climbing FlightAware ADS-B (KBRY)
04:51PM 38.2727 -85.8789 248° West 288 331 8,400 3,960 Climbing FlightAware ADS-B
04:51PM 38.2690 -85.8876 223° Southwest 298 343 9,100 1,860 Climbing FlightAware ADS-B
04:51PM 38.2241 -85.9352 216° Southwest 299 344 9,900 1,440 Climbing FlightAware ADS-B
04:52PM 38.1894 -85.9666 216° Southwest 333 383 10,900 1,500 Climbing FlightAware ADS-B (KBRY)
04:52PM 38.1416 -85.9995 194° South 375 432 11,500 1,680 Climbing FlightAware ADS-B
04:53PM 38.0814 -85.9907 161° South 413 475 12,600 2,340 Climbing FlightAware ADS-B (KBRY)
04:54PM 37.9989 -85.9572 162° South 433 498 14,600 2,940 Climbing FlightAware ADS-B
04:54PM 37.9463 -85.9352 162° South 442 509 16,100 2,700 Climbing FlightAware ADS-B
04:55PM 37.8858 -85.9101 162° South 458 527 17,300 2,580 Climbing FlightAware ADS-B
04:55PM 37.8192 -85.8831 162° South 466 536 18,700 2,520 Climbing FlightAware ADS-B
04:56PM 37.7595 -85.8590 162° South 475 547 19,900 2,640 Climbing FlightAware ADS-B
04:56PM 37.6624 -85.8198 162° South 479 551 22,000 3,480 Climbing FlightAware ADS-B
04:57PM 37.6030 -85.7960 162° South 460 529 24,200 3,360 Climbing FlightAware ADS-B
04:57PM 37.5547 -85.7766 162° South 465 535 25,400 2,580 Climbing FlightAware ADS-B
04:58PM 37.4751 -85.7447 162° South 463 533 26,900 2,280 Climbing FlightAware ADS-B
04:58PM 37.4144 -85.7205 162° South 473 544 27,800 1,560 Climbing FlightAware ADS-B
04:59PM 37.3496 -85.6945 162° South 485 558 28,500 1,740 Climbing FlightAware ADS-B
05:00PM 37.2574 -85.6577 162° South 495 570 29,900 1,860 Climbing FlightAware ADS-B
05:00PM 37.2071 -85.6376 162° South 501 577 30,800 1,440 Climbing FlightAware ADS-B
05:01PM 37.0851 -85.5891 162° South 511 588 31,800 1,620 Climbing FlightAware ADS-B
05:02PM 36.9890 -85.5510 162° South 509 586 33,300 1,620 Climbing FlightAware ADS-B
05:02PM 36.9131 -85.5210 163° South 514 592 34,000 540 Climbing FlightAware ADS-B (KBRY)
05:03PM 36.8163 -85.4829 163° South 524 603 34,000 840 Level FlightAware ADS-B
05:04PM 36.7041 -85.4389 162° South 519 597 35,400 1,440 Climbing FlightAware ADS-B
05:04PM 36.6269 -85.4085 163° South 515 593 36,100 1,020 Climbing FlightAware ADS-B (KBRY)
05:05PM 36.4737 -85.3486 163° South 492 566 37,000 420 Climbing FlightAware ADS-B (KBRY)
05:06PM 36.3577 -85.3033 163° South 489 563 37,000  Level FlightAware ADS-B (KBRY)
05:08PM 36.2001 -85.2423 163° South 494 568 37,000  Level FlightAware ADS-B (KBRY)
05:09PM 36.0751 -85.1938 163° South 485 558 37,000  Level FlightAware ADS-B (KBRY)
05:09PM 36.0049 -85.1667 163° South 481 554 37,000  Level FlightAware ADS-B (KBRY)
05:10PM 35.8783 -85.1228 163° South 485 558 37,000  Level Atlanta Center
05:11PM 35.7639 -85.0803 163° South 485 558 37,000  Level Atlanta Center
05:12PM 35.6372 -85.0303 162° South 480 552 37,000  Level Atlanta Center
05:13PM 35.5122 -84.9803 162° South 480 552 37,000  Level Atlanta Center
05:14PM 35.3875 -84.9328 163° South 480 552 37,000  Level Atlanta Center
05:15PM 35.2606 -84.8883 164° South 480 552 37,000  Level Atlanta Center
05:16PM 35.1333 -84.8717 174° South 473 544 37,000  Level Atlanta Center
05:17PM 35.0061 -84.8578 175° South 468 539 37,000  Level Atlanta Center
05:18PM 34.8789 -84.8464 176° South 463 533 37,000  Level Atlanta Center
05:19PM 34.7517 -84.8325 175° South 463 533 37,000  Level Atlanta Center
05:20PM 34.6267 -84.8189 175° South 463 533 37,000  Level Atlanta Center
05:21PM 34.5014 -84.8075 176° South 458 527 37,000  Level Atlanta Center
05:22PM 34.3783 -84.7964 176° South 458 527 37,000  Level Atlanta Center
05:23PM 34.2447 -84.8028 182° South 453 521 37,000  Level Atlanta Center
05:24PM 34.1486 -84.8194 188° South 447 514 37,000  Level Atlanta Center
05:25PM 34.0044 -84.8506 190° South 446 513 37,000  Level Atlanta Center
05:26PM 33.8853 -84.8847 193° South 441 507 37,000  Level Atlanta Center
05:27PM 33.7642 -84.9108 190° South 441 507 37,000  Level Atlanta Center
05:28PM 33.6389 -84.9072 179° South 446 513 37,000  Level Atlanta Center
05:29PM 33.5181 -84.8461 157° South 446 513 37,000  Level Atlanta Center
05:30PM 33.3975 -84.7728 153° Southeast 462 532 37,000  Level Atlanta Center
05:31PM 33.2728 -84.6972 153° Southeast 483 556 37,000  Level Atlanta Center
05:32PM 33.1500 -84.6244 154° Southeast 488 562 37,000  Level Atlanta Center
05:33PM 33.0292 -84.5542 154° Southeast 483 556 37,000  Level Atlanta Center
05:34PM 32.9083 -84.4842 154° Southeast 488 562 37,000  Level Atlanta Center
05:35PM 32.7897 -84.4169 155° Southeast 488 562 37,000  Level Atlanta Center
05:36PM 32.6833 -84.3522 153° Southeast 483 556 37,000  Level Atlanta Center
05:37PM 32.5644 -84.2853 155° Southeast 483 556 37,000  Level Atlanta Center
05:38PM 32.4458 -84.2186 155° Southeast 478 550 37,000  Level Atlanta Center
05:39PM 32.3267 -84.1494 154° Southeast 478 550 37,000  Level Atlanta Center
05:40PM 32.2119 -84.0831 154° Southeast 466 536 37,000  Level Atlanta Center
05:41PM 32.0931 -84.0144 154° Southeast 466 536 37,000  Level Atlanta Center
05:49PM 31.1044 -83.5706 167° South 463 533 37,000  Level FlightAware ADS-B (KTLH)
05:51PM 30.8642 -83.5047 166° South 458 527 37,000  Level Jacksonville Center
05:52PM 30.7414 -83.4703 169° South 458 527 37,000  Level Jacksonville Center
05:52PM 30.7213 -83.4667 167° South 473 544 37,000  Level FlightAware ADS-B (KTLH)
05:53PM 30.6142 -83.4381 168° South 464 534 37,000  Level Jacksonville Center
05:54PM 30.5947 -83.4459 169° South  Level FlightAware Approximate
05:54PM 30.4847 -83.4036 167° South 471 542 37,000  Level Jacksonville Center
05:55PM 30.3553 -83.3692 167° South 471 542 37,000  Level Jacksonville Center
05:56PM 30.2281 -83.3350 167° South 471 542 37,000  Level Jacksonville Center
05:57PM 30.1031 -83.3031 168° South 471 542 37,000  Level Jacksonville Center
05:58PM 30.1139 -83.3248 166° South  Level FlightAware Approximate
05:58PM 29.9736 -83.2689 167° South 471 542 37,000  Level Jacksonville Center
05:59PM 29.8444 -83.2375 168° South 471 542 37,000  Level Jacksonville Center
06:00PM 29.7211 -83.2033 166° South 471 542 37,000  Level Jacksonville Center
06:09PM 28.6261 -82.9147 167° South 461 531 37,000  Level FlightAware ADS-B (KMCO)
06:09PM 28.5684 -82.8999 167° South 462 532 37,000  Level FlightAware ADS-B (KMCO)
06:11PM 28.3985 -82.8562 167° South 460 529 37,000  Level FlightAware ADS-B (KMCO)
06:11PM 28.3115 -82.8339 167° South 460 529 37,000  Level FlightAware ADS-B (KMCO)
06:12PM 28.2060 -82.8068 167° South 461 531 37,000  Level FlightAware ADS-B (KMCO)
06:13PM 28.1078 -82.7818 167° South 462 532 37,000  Level FlightAware ADS-B (KMCO)
06:14PM 27.9731 -82.7470 166° South 462 532 37,000  Level FlightAware ADS-B (KMCO)
06:15PM 27.9137 -82.7277 162° South 461 531 37,000  Level FlightAware ADS-B (KEYW)
06:15PM 27.8534 -82.7055 161° South 460 529 37,000  Level FlightAware ADS-B (KEYW)
06:16PM 27.8064 -82.6877 161° South 461 531 37,000  Level FlightAware ADS-B (KEYW)
06:16PM 27.7321 -82.6597 161° South 461 531 37,000  Level FlightAware ADS-B (KEYW)
06:16PM 27.6982 -82.6469 161° South 461 531 37,000  Level FlightAware ADS-B (KMCO)
06:17PM 27.6718 -82.6369 161° South 460 529 37,000  Level FlightAware ADS-B (KEYW)
06:17PM 27.6189 -82.6170 162° South 461 531 37,000  Level FlightAware ADS-B (KMCO)
06:17PM 27.6198 -82.6173 161° South 460 529 37,000  Level FlightAware ADS-B (KEYW)
06:18PM 27.5126 -82.5772 161° South 460 529 37,000  Level FlightAware ADS-B (KEYW)
06:18PM 27.5047 -82.5743 162° South 461 531 37,000  Level FlightAware ADS-B (KMCO)
06:19PM 27.4266 -82.5453 161° South 461 531 37,000  Level FlightAware ADS-B (KEYW)
06:19PM 27.3225 -82.5064 161° South 462 532 37,000  Level FlightAware ADS-B (KEYW)
06:20PM 27.2621 -82.4841 161° South 463 533 37,000  Level FlightAware ADS-B (KEYW)
06:20PM 27.2416 -82.4764 161° South 463 533 37,000  Level FlightAware ADS-B (KEYW)
06:21PM 27.1191 -82.4309 162° South 463 533 37,000  Level FlightAware ADS-B (KMCO)
06:22PM 27.0220 -82.3949 161° South 463 533 37,000  Level FlightAware ADS-B (KEYW)
06:23PM 26.9312 -82.3613 161° South 461 531 37,000 -180 Level FlightAware ADS-B (KEYW)
06:23PM 26.8331 -82.3251 161° South 453 521 36,800 -360 Descending FlightAware ADS-B (KEYW)
06:23PM 26.8233 -82.3214 162° South 454 522 36,700 -1,380 Descending FlightAware ADS-B (KMCO)
06:24PM 26.7466 -82.2850 150° Southeast 454 522 35,800 -1,380 Descending FlightAware ADS-B (KEYW)
06:24PM 26.7224 -82.2681 146° Southeast 457 526 35,500 -1,380 Descending FlightAware ADS-B (KMCO)
06:25PM 26.6678 -82.2218 142° Southeast 458 527 34,800 -1,200 Descending FlightAware ADS-B (KEYW)
06:25PM 26.6383 -82.1963 142° Southeast 459 528 34,500 -1,020 Descending FlightAware ADS-B (KMCO)
06:25PM 26.6178 -82.1783 141° Southeast 459 528 34,300 -1,200 Descending FlightAware ADS-B (KEYW)
06:26PM 26.5673 -82.1342 142° Southeast 458 527 33,700 -1,080 Descending FlightAware ADS-B (KEYW)
06:26PM 26.5342 -82.1055 142° Southeast 456 525 33,400 -1,020 Descending FlightAware ADS-B (KMCO)
06:26PM 26.5172 -82.0907 142° Southeast 455 524 33,200 -1,260 Descending FlightAware ADS-B (KEYW)
06:27PM 26.4690 -82.0489 142° Southeast 458 527 32,600 -1,200 Descending FlightAware ADS-B (KMCO)
06:27PM 26.4666 -82.0469 141° Southeast 457 526 32,600 -1,320 Level FlightAware ADS-B (KEYW)
06:27PM 26.4214 -82.0079 142° Southeast 458 527 32,000 -1,260 Descending FlightAware ADS-B (KEYW)
06:28PM 26.3932 -81.9836 142° Southeast 461 531 31,700 -1,260 Descending FlightAware ADS-B (KMCO)
06:28PM 26.3666 -81.9606 142° Southeast 462 532 31,300 -1,320 Descending FlightAware ADS-B (KEYW)
06:28PM 26.3240 -81.9242 142° Southeast 465 535 30,800 -1,380 Descending FlightAware ADS-B (KMCO)
06:29PM 26.2887 -81.8939 142° Southeast 467 537 30,300 -1,440 Descending FlightAware ADS-B (KEYW)
06:29PM 26.2304 -81.8437 142° Southeast 469 540 29,500 -1,740 Descending FlightAware ADS-B (KEYW)
06:30PM 26.2022 -81.8196 142° Southeast 471 542 28,800 -1,620 Descending FlightAware ADS-B (KMCO)
06:30PM 26.1455 -81.7465 119° Southeast 473 544 28,000 -2,220 Descending FlightAware ADS-B (KEYW)
06:31PM 26.1105 -81.6452 110° East 462 532 25,800 -2,880 Descending FlightAware ADS-B (KEYW)
06:31PM 26.0896 -81.5795 109° East 453 521 24,400 -3,000 Descending FlightAware ADS-B (KEYW)
06:32PM 26.0685 -81.5134 109° East 446 513 22,800 -3,240 Descending FlightAware ADS-B (KEYW)
06:32PM 26.0477 -81.4488 109° East 440 506 21,200 -3,240 Descending FlightAware ADS-B (KEYW)
06:33PM 26.0295 -81.3922 109° East 432 497 19,600 -3,120 Descending FlightAware ADS-B (KEYW)
06:33PM 26.0071 -81.3226 109° East 419 482 18,100 -3,300 Descending FlightAware ADS-B (KEYW)
06:34PM 25.9873 -81.2623 109° East 414 476 16,300 -3,420 Descending FlightAware ADS-B (KEYW)
06:35PM 25.9586 -81.1736 109° East 397 457 13,800 -3,420 Descending FlightAware ADS-B (KEYW)
06:35PM 25.9310 -81.0902 112° Southeast 375 432 11,300 -2,340 Descending FlightAware ADS-B (KEYW)
06:36PM 25.8930 -81.0202 121° Southeast 333 383 10,300 -960 Descending FlightAware ADS-B (KEYW)
06:37PM 25.8635 -80.9551 101° East 305 351 9,900 -540 Descending FlightAware ADS-B (KEYW)
06:37PM 25.8632 -80.9488 92° East 298 343 9,900  Level FlightAware ADS-B (KEYW)
06:37PM 25.8636 -80.9404 85° East 293 337 9,900 -720 Level FlightAware ADS-B (KEYW)
06:37PM 25.8669 -80.9100 83° East 283 326 9,600 -900 Descending FlightAware ADS-B (KEYW)
06:38PM 25.8692 -80.8877 84° East 284 327 9,200 -1,380 Descending FlightAware ADS-B (KEYW)
06:38PM 25.8676 -80.8265 84° East 284 327 8,300 -1,680 Descending FlightAware ADS-B (KEYW)
06:39PM 25.8669 -80.8167 94° East 283 326 8,200 -1,740 Descending FlightAware ADS-B (KEYW)
06:39PM 25.8640 -80.7706 94° East 283 326 7,200 -1,620 Descending FlightAware ADS-B (KEYW)
06:40PM 25.8616 -80.7289 93° East 258 297 6,500 -1,080 Descending FlightAware ADS-B (KEYW)
06:41PM 25.8561 -80.6539 93° East 245 282 5,600 -960 Descending Miami Center
06:41PM 25.8533 -80.5925 93° East 241 277 4,800 -1,020 Descending Miami Center
06:42PM 25.8458 -80.5233 97° East 230 265 3,700 -1,140 Descending Miami Center
06:43PM 25.8383 -80.5089 120° Southeast 220 253 3,400 -1,020 Descending Miami Center
06:43PM 25.8208 -80.4619 112° Southeast 219 252 2,700 -900 Descending Miami Center
06:45PM 25.8025 -80.4061 110° East 194 223 1,800 -840 Descending Miami Center
06:46PM 25.8006 -80.3567 92° East 160 184 1,100 -840 Descending Miami Center
06:46PM 25.8008 -80.3439 89° East 152 175 800 -900 Descending Miami Center
06:47PM 25.8022 -80.3117 87° East 148 170 200 -780 Descending Miami Center
06:49PM 25.7954 -80.2901 24° Northeast  Level Estimated